createdAt,value
2022-09-12T00:01:19.515Z,36.38
2022-09-12T00:03:47.381Z,34.95
2022-09-12T00:06:30.918Z,33.28
2022-09-12T00:09:06.229Z,40.88
2022-09-12T00:11:37.491Z,36.63
2022-09-12T00:14:05.843Z,39.22
2022-09-12T00:16:35.870Z,37.50
2022-09-12T00:19:05.929Z,44.60
2022-09-12T00:21:35.314Z,40.08
2022-09-12T00:24:03.145Z,40.00
2022-09-12T00:26:30.490Z,38.05
2022-09-12T00:28:57.527Z,38.75
2022-09-12T00:31:26.768Z,38.58
2022-09-12T00:33:58.069Z,36.63
2022-09-12T00:36:27.002Z,37.63
2022-09-12T00:38:54.877Z,38.15
2022-09-12T00:41:26.102Z,36.95
2022-09-12T00:44:15.914Z,39.33
2022-09-12T00:46:52.995Z,39.15
2022-09-12T00:49:35.213Z,34.75
2022-09-12T00:52:22.089Z,37.05
2022-09-12T00:55:23.630Z,37.38
2022-09-12T00:57:57.819Z,35.13
2022-09-12T01:00:28.276Z,34.47
2022-09-12T01:03:09.001Z,38.75
2022-09-12T01:05:44.938Z,37.25
2022-09-12T01:08:12.209Z,34.50
2022-09-12T01:10:42.147Z,38.13
2022-09-12T01:13:11.154Z,37.25
2022-09-12T01:15:40.397Z,35.50
2022-09-12T01:18:16.158Z,38.88
2022-09-12T01:20:51.699Z,34.40
2022-09-12T01:23:39.761Z,34.55
2022-09-12T01:26:36.841Z,34.53
2022-09-12T01:29:37.073Z,36.90
2022-09-12T01:32:48.244Z,35.70
2022-09-12T01:36:03.113Z,37.63
2022-09-12T01:38:50.333Z,36.33
2022-09-12T01:42:10.370Z,34.58
2022-09-12T01:44:37.557Z,38.65
2022-09-12T01:47:22.892Z,33.95
2022-09-12T01:50:06.883Z,35.72
2022-09-12T01:53:03.362Z,36.83
2022-09-12T01:55:38.202Z,35.92
2022-09-12T01:58:41.831Z,38.65
2022-09-12T02:01:21.731Z,34.97
2022-09-12T02:04:10.579Z,36.15
2022-09-12T02:06:59.052Z,37.03
2022-09-12T02:09:44.386Z,34.22
2022-09-12T02:12:17.898Z,39.33
2022-09-12T02:14:55.476Z,36.53
2022-09-12T02:17:26.932Z,35.13
2022-09-12T02:20:25.875Z,36.22
2022-09-12T02:23:01.175Z,35.28
2022-09-12T02:25:30.934Z,35.75
2022-09-12T02:28:33.037Z,35.10
2022-09-12T02:31:30.905Z,34.92
2022-09-12T02:34:15.410Z,35.60
2022-09-12T02:37:03.173Z,35.75
2022-09-12T02:39:30.212Z,40.65
2022-09-12T02:42:01.841Z,36.20
2022-09-12T02:44:31.861Z,35.03
2022-09-12T02:47:25.160Z,37.65
2022-09-12T02:49:53.926Z,38.13
2022-09-12T02:52:21.441Z,38.35
2022-09-12T02:54:50.370Z,42.30
2022-09-12T02:57:23.118Z,37.08
2022-09-12T02:59:56.384Z,37.55
2022-09-12T03:02:28.191Z,39.55
2022-09-12T03:05:25.165Z,42.17
2022-09-12T03:08:16.041Z,41.42
2022-09-12T03:13:32.599Z,39.00
2022-09-12T03:16:17.567Z,40.55
2022-09-12T03:19:02.063Z,39.30
2022-09-12T03:21:50.246Z,38.63
2022-09-12T03:24:48.797Z,38.63
2022-09-12T03:27:20.880Z,44.53
2022-09-12T03:29:49.633Z,40.78
2022-09-12T03:32:16.463Z,39.63
2022-09-12T03:34:43.323Z,43.33
2022-09-12T03:37:10.112Z,45.75
2022-09-12T03:39:37.132Z,51.55
2022-09-12T03:42:04.277Z,49.55
2022-09-12T03:44:31.058Z,50.95
2022-09-12T03:46:57.859Z,51.45
2022-09-12T03:49:24.714Z,55.47
2022-09-12T03:51:51.518Z,61.15
2022-09-12T03:54:18.337Z,56.03
2022-09-12T03:56:45.155Z,55.67
2022-09-12T03:59:11.926Z,54.22
2022-09-12T04:01:38.820Z,53.45
2022-09-12T04:04:05.606Z,51.67
2022-09-12T04:06:32.493Z,56.22
2022-09-12T04:09:00.061Z,54.50
2022-09-12T04:11:26.932Z,52.38
2022-09-12T04:13:54.346Z,52.33
2022-09-12T04:16:21.618Z,55.40
2022-09-12T04:18:48.661Z,52.22
2022-09-12T04:21:24.397Z,50.80
2022-09-12T04:23:54.214Z,56.60
2022-09-12T04:26:21.149Z,62.95
2022-09-12T04:28:48.493Z,58.67
2022-09-12T04:31:20.731Z,56.78
2022-09-12T04:33:47.738Z,59.58
2022-09-12T04:36:17.471Z,57.50
2022-09-12T04:38:47.933Z,55.97
2022-09-12T04:41:27.249Z,58.97
2022-09-12T04:44:04.652Z,55.25
2022-09-12T04:46:36.946Z,57.80
2022-09-12T04:49:04.509Z,61.05
2022-09-12T04:51:35.082Z,60.00
2022-09-12T04:54:06.333Z,61.75
2022-09-12T04:56:37.235Z,51.53
2022-09-12T04:59:04.426Z,59.28
2022-09-12T05:01:31.592Z,52.88
2022-09-12T05:03:59.999Z,52.65
2022-09-12T05:06:34.488Z,56.88
2022-09-12T05:09:04.147Z,56.35
2022-09-12T05:12:02.508Z,52.30
2022-09-12T05:14:24.759Z,56.72
2022-09-12T05:16:51.695Z,51.35
2022-09-12T05:19:18.858Z,57.25
2022-09-12T05:21:48.481Z,51.55
2022-09-12T05:24:15.449Z,51.20
2022-09-12T05:26:42.272Z,54.33
2022-09-12T05:29:09.047Z,52.53
2022-09-12T05:31:36.343Z,50.85
2022-09-12T05:34:09.102Z,52.80
2022-09-12T05:36:39.622Z,52.63
2022-09-12T05:39:06.726Z,51.35
2022-09-12T05:41:34.968Z,48.05
2022-09-12T05:44:06.127Z,54.05
2022-09-12T05:46:40.581Z,49.15
2022-09-12T05:49:11.672Z,49.95
2022-09-12T05:51:42.933Z,51.70
2022-09-12T05:54:14.202Z,50.45
2022-09-12T05:56:44.015Z,57.30
2022-09-12T05:59:20.979Z,50.60
2022-09-12T06:01:49.128Z,51.38
2022-09-12T06:04:16.950Z,49.92
2022-09-12T06:06:45.627Z,46.92
2022-09-12T06:09:15.569Z,50.92
2022-09-12T06:11:43.965Z,50.47
2022-09-12T06:14:14.083Z,45.78
2022-09-12T06:16:41.289Z,45.83
2022-09-12T06:19:19.305Z,51.53
2022-09-12T06:21:49.440Z,50.28
2022-09-12T06:24:18.045Z,53.13
2022-09-12T06:26:45.419Z,50.50
2022-09-12T06:29:13.304Z,50.85
2022-09-12T06:31:42.921Z,49.80
2022-09-12T06:34:14.380Z,50.15
2022-09-12T06:36:45.784Z,51.42
2022-09-12T06:39:18.955Z,46.40
2022-09-12T06:41:47.092Z,51.95
2022-09-12T06:44:23.201Z,47.83
2022-09-12T06:46:50.243Z,48.45
2022-09-12T06:49:17.814Z,54.33
2022-09-12T06:51:44.848Z,50.95
2022-09-12T06:54:17.234Z,50.08
2022-09-12T06:56:45.123Z,50.45
2022-09-12T06:59:12.600Z,53.33
2022-09-12T07:01:40.535Z,50.45
2022-09-12T07:04:07.607Z,51.88
2022-09-12T07:06:41.509Z,48.65
2022-09-12T07:09:13.449Z,53.50
2022-09-12T07:11:42.134Z,47.50
2022-09-12T07:14:13.035Z,47.20
2022-09-12T07:16:40.627Z,43.05
2022-09-12T07:19:09.280Z,44.25
2022-09-12T07:21:40.003Z,43.60
2022-09-12T07:24:10.080Z,42.25
2022-09-12T07:26:38.709Z,39.35
2022-09-12T07:29:34.793Z,36.92
2022-09-12T07:31:52.453Z,39.08
2022-09-12T07:34:19.314Z,39.78
2022-09-12T07:36:46.108Z,39.55
2022-09-12T07:39:12.988Z,39.67
2022-09-12T07:41:40.118Z,34.88
2022-09-12T07:44:07.249Z,38.55
2022-09-12T07:46:35.156Z,41.40
2022-09-12T07:49:02.917Z,32.03
2022-09-12T07:51:31.274Z,38.42
2022-09-12T07:53:58.474Z,35.80
2022-09-12T07:56:32.034Z,35.00
2022-09-12T07:59:01.598Z,36.63
2022-09-12T08:01:28.601Z,38.97
2022-09-12T08:04:00.634Z,36.33
2022-09-12T08:06:32.153Z,28.73
2022-09-12T08:09:00.136Z,38.40
2022-09-12T08:11:29.699Z,38.90
2022-09-12T08:13:58.116Z,39.80
2022-09-12T08:16:31.272Z,37.33
2022-09-12T08:19:00.946Z,37.88
2022-09-12T08:21:32.275Z,36.80
2022-09-12T08:24:06.409Z,33.85
2022-09-12T08:26:34.827Z,35.95
2022-09-12T08:29:02.441Z,40.45
2022-09-12T08:31:29.455Z,35.05
2022-09-12T08:33:57.799Z,33.85
2022-09-12T08:36:28.269Z,36.42
2022-09-12T08:39:06.556Z,26.05
2022-09-12T08:41:46.929Z,30.40
2022-09-12T08:44:54.162Z,33.55
2022-09-12T08:47:40.212Z,31.35
2022-09-12T08:50:27.535Z,33.75
2022-09-12T08:53:10.505Z,33.70
2022-09-12T08:55:43.236Z,32.88
2022-09-12T08:58:29.094Z,32.55
2022-09-12T09:01:20.601Z,33.08
2022-09-12T09:03:59.134Z,32.42
2022-09-12T09:06:56.046Z,32.33
2022-09-12T09:09:31.714Z,30.63
2022-09-12T09:12:15.594Z,28.73
2022-09-12T09:15:22.096Z,25.02
2022-09-12T09:17:58.261Z,27.58
2022-09-12T09:20:51.931Z,26.17
2022-09-12T09:23:31.845Z,29.20
2022-09-12T09:26:10.595Z,26.00
2022-09-12T09:29:03.027Z,25.17
2022-09-12T09:31:38.380Z,24.83
2022-09-12T09:34:22.968Z,22.67
2022-09-12T09:37:13.830Z,21.73
2022-09-12T09:40:19.743Z,22.73
2022-09-12T09:43:00.274Z,20.42
2022-09-12T09:45:29.365Z,20.75
2022-09-12T09:48:42.490Z,23.70
2022-09-12T09:51:09.684Z,19.95
2022-09-12T09:53:51.814Z,16.10
2022-09-12T09:56:37.705Z,20.17
2022-09-12T09:59:33.707Z,16.80
2022-09-12T10:02:24.190Z,22.17
2022-09-12T10:04:59.733Z,21.92
2022-09-12T10:07:27.383Z,17.83
2022-09-12T10:10:14.544Z,15.57
2022-09-12T10:12:41.903Z,14.45
2022-09-12T10:15:22.048Z,13.77
2022-09-12T10:17:51.120Z,17.50
2022-09-12T10:20:44.241Z,15.90
2022-09-12T10:23:37.879Z,13.25
2022-09-12T10:26:19.514Z,14.88
2022-09-12T10:28:55.938Z,13.88
2022-09-12T10:31:55.367Z,13.30
2022-09-12T10:34:53.737Z,14.63
2022-09-12T10:37:32.271Z,13.82
2022-09-12T10:40:02.179Z,13.15
2022-09-12T10:42:58.896Z,12.00
2022-09-12T10:45:38.767Z,16.02
2022-09-12T10:48:29.520Z,11.75
2022-09-12T10:50:58.417Z,11.13
2022-09-12T10:53:44.867Z,10.52
2022-09-12T10:56:22.593Z,11.03
2022-09-12T10:59:31.450Z,9.60
2022-09-12T11:02:20.324Z,11.88
2022-09-12T11:05:17.459Z,16.45
2022-09-12T11:08:00.620Z,12.45
2022-09-12T11:10:38.775Z,11.65
2022-09-12T11:13:45.651Z,8.40
2022-09-12T11:16:50.554Z,14.52
2022-09-12T11:19:36.610Z,9.15
2022-09-12T11:22:26.713Z,6.80
2022-09-12T11:25:20.477Z,7.57
2022-09-12T11:28:11.493Z,9.70
2022-09-12T11:31:11.436Z,7.28
2022-09-12T11:33:48.869Z,6.13
2022-09-12T11:36:41.949Z,7.13
2022-09-12T11:39:23.926Z,7.00
2022-09-12T11:42:03.297Z,8.63
2022-09-12T11:44:42.051Z,7.35
2022-09-12T11:47:13.565Z,7.38
2022-09-12T11:49:48.609Z,7.88
2022-09-12T11:52:19.927Z,7.65
2022-09-12T11:55:05.934Z,6.85
2022-09-12T11:57:43.902Z,7.93
2022-09-12T12:03:01.445Z,8.45
2022-09-12T12:05:52.186Z,6.07
2022-09-12T12:08:21.992Z,6.32
2022-09-12T12:11:01.904Z,7.95
2022-09-12T12:13:36.596Z,5.65
2022-09-12T12:16:12.925Z,6.78
2022-09-12T12:18:42.926Z,5.00
2022-09-12T12:21:37.726Z,6.63
2022-09-12T12:24:07.480Z,5.80
2022-09-12T12:27:22.452Z,6.13
2022-09-12T12:29:49.283Z,8.05
2022-09-12T12:32:16.188Z,6.38
2022-09-12T12:34:47.546Z,5.18
2022-09-12T12:37:20.274Z,6.20
2022-09-12T12:39:48.214Z,5.00
2022-09-12T12:42:36.313Z,5.53
2022-09-12T12:45:27.669Z,5.85
2022-09-12T12:48:10.253Z,6.05
2022-09-12T12:50:37.635Z,6.97
2022-09-12T12:53:22.584Z,5.82
2022-09-12T12:55:54.190Z,6.68
2022-09-12T13:01:16.737Z,6.80
2022-09-12T13:04:04.616Z,7.20
2022-09-12T13:06:36.218Z,8.68
2022-09-12T13:12:04.398Z,5.07
2022-09-12T13:14:43.466Z,5.68
2022-09-12T13:17:33.276Z,6.78
2022-09-12T13:20:28.654Z,5.03
2022-09-12T13:22:56.998Z,5.60
2022-09-12T13:25:36.970Z,6.80
2022-09-12T13:28:06.219Z,6.68
2022-09-12T13:30:42.590Z,4.75
2022-09-12T13:33:29.997Z,6.32
2022-09-12T13:36:15.421Z,6.78
2022-09-12T13:39:16.349Z,6.57
2022-09-12T13:42:21.682Z,7.20
2022-09-12T13:45:03.348Z,8.18
2022-09-12T13:47:39.361Z,5.72
2022-09-12T13:50:12.728Z,8.88
2022-09-12T13:52:39.776Z,6.03
2022-09-12T13:55:23.608Z,8.68
2022-09-12T13:58:07.423Z,6.28
2022-09-12T14:00:35.055Z,6.13
2022-09-12T14:03:54.736Z,4.95
2022-09-12T14:06:26.281Z,7.57
2022-09-12T14:09:01.282Z,5.97
2022-09-12T14:11:31.060Z,6.75
2022-09-12T14:13:58.927Z,7.05
2022-09-12T14:16:29.048Z,7.75
2022-09-12T14:18:57.102Z,8.93
2022-09-12T14:21:35.500Z,5.45
2022-09-12T14:24:08.563Z,4.45
2022-09-12T14:26:39.082Z,6.57
2022-09-12T14:29:08.301Z,6.82
2022-09-12T14:31:39.483Z,6.82
2022-09-12T14:34:17.613Z,5.68
2022-09-12T14:36:51.332Z,6.75
2022-09-12T14:39:30.758Z,6.95
2022-09-12T14:42:18.256Z,5.07
2022-09-12T14:44:58.708Z,6.95
2022-09-12T14:47:34.953Z,5.13
2022-09-12T14:50:01.981Z,7.13
2022-09-12T14:52:34.731Z,6.20
2022-09-12T14:55:32.139Z,4.50
2022-09-12T14:58:20.841Z,5.05
2022-09-12T15:01:02.375Z,5.72
2022-09-12T15:03:36.470Z,5.97
2022-09-12T15:06:08.057Z,4.85
2022-09-12T15:11:01.818Z,5.18
2022-09-12T15:13:39.022Z,5.05
2022-09-12T15:16:12.045Z,3.78
2022-09-12T15:18:39.243Z,5.10
2022-09-12T15:21:13.212Z,3.85
2022-09-12T15:23:46.918Z,6.18
2022-09-12T15:26:18.278Z,3.10
2022-09-12T15:28:45.764Z,4.00
2022-09-12T15:31:21.346Z,4.50
2022-09-12T15:33:48.395Z,4.60
2022-09-12T15:36:20.163Z,3.88
2022-09-12T15:38:48.453Z,5.35
2022-09-12T15:41:19.900Z,3.70
2022-09-12T15:43:48.188Z,5.43
2022-09-12T15:46:17.450Z,4.82
2022-09-12T15:48:45.273Z,4.18
2022-09-12T15:51:19.029Z,4.45
2022-09-12T15:53:48.377Z,5.03
2022-09-12T15:56:18.638Z,3.97
2022-09-12T15:58:58.169Z,4.25
2022-09-12T16:01:28.282Z,4.13
2022-09-12T16:03:55.432Z,3.17
2022-09-12T16:06:23.472Z,3.35
2022-09-12T16:08:50.471Z,4.32
2022-09-12T16:11:22.971Z,4.38
2022-09-12T16:13:52.164Z,4.63
2022-09-12T16:16:20.239Z,5.00
2022-09-12T16:18:47.253Z,4.53
2022-09-12T16:21:15.691Z,5.80
2022-09-12T16:23:44.630Z,4.53
2022-09-12T16:26:11.622Z,4.65
2022-09-12T16:28:38.801Z,3.60
2022-09-12T16:31:09.029Z,6.10
2022-09-12T16:33:38.180Z,5.15
2022-09-12T16:36:18.659Z,6.07
2022-09-12T16:38:49.261Z,4.85
2022-09-12T16:41:19.379Z,3.72
2022-09-12T16:43:47.387Z,5.40
2022-09-12T16:46:24.275Z,4.00
2022-09-12T16:48:54.683Z,6.72
2022-09-12T16:51:33.556Z,4.93
2022-09-12T16:54:00.489Z,5.40
2022-09-12T16:56:27.699Z,5.13
2022-09-12T16:58:54.592Z,4.32
2022-09-12T17:01:25.239Z,5.57
2022-09-12T17:03:58.159Z,4.18
2022-09-12T17:06:26.496Z,3.17
2022-09-12T17:08:56.196Z,6.90
2022-09-12T17:11:33.158Z,6.72
2022-09-12T17:14:05.368Z,3.97
2022-09-12T17:16:36.342Z,4.53
2022-09-12T17:19:05.010Z,4.75
2022-09-12T17:21:32.910Z,6.07
2022-09-12T17:23:59.797Z,5.20
2022-09-12T17:26:27.168Z,4.20
2022-09-12T17:28:54.013Z,5.50
2022-09-12T17:31:21.079Z,4.63
2022-09-12T17:33:48.091Z,5.15
2022-09-12T17:36:17.792Z,5.45
2022-09-12T17:38:46.070Z,5.53
2022-09-12T17:41:17.728Z,4.60
2022-09-12T17:43:54.685Z,4.30
2022-09-12T17:46:24.802Z,4.88
2022-09-12T17:48:54.487Z,6.05
2022-09-12T17:51:24.830Z,5.05
2022-09-12T17:54:02.143Z,6.65
2022-09-12T17:56:31.722Z,6.20
2022-09-12T17:58:59.646Z,4.35
2022-09-12T18:01:47.151Z,5.20
2022-09-12T18:04:15.379Z,5.65
2022-09-12T18:06:47.885Z,4.63
2022-09-12T18:09:18.721Z,8.63
2022-09-12T18:11:46.727Z,8.43
2022-09-12T18:14:14.486Z,5.25
2022-09-12T18:16:42.423Z,6.82
2022-09-12T18:19:10.982Z,6.97
2022-09-12T18:21:38.319Z,8.15
2022-09-12T18:24:05.725Z,6.13
2022-09-12T18:26:33.290Z,7.07
2022-09-12T18:29:00.213Z,6.03
2022-09-12T18:31:30.249Z,8.32
2022-09-12T18:33:59.844Z,9.20
2022-09-12T18:36:27.943Z,5.00
2022-09-12T18:38:57.065Z,5.40
2022-09-12T18:41:24.915Z,5.53
2022-09-12T18:44:01.102Z,5.85
2022-09-12T18:46:30.902Z,5.88
2022-09-12T18:48:59.846Z,7.07
2022-09-12T18:51:34.049Z,4.88
2022-09-12T18:54:06.311Z,5.75
2022-09-12T18:56:37.689Z,8.77
2022-09-12T18:59:07.271Z,9.20
2022-09-12T19:01:38.335Z,8.23
2022-09-12T19:04:08.194Z,8.40
2022-09-12T19:06:41.605Z,10.52
2022-09-12T19:09:10.945Z,11.18
2022-09-12T19:11:42.562Z,9.27
2022-09-12T19:14:09.386Z,7.65
2022-09-12T19:16:36.769Z,6.80
2022-09-12T19:19:04.034Z,8.55
2022-09-12T19:21:33.044Z,7.93
2022-09-12T19:24:04.268Z,8.00
2022-09-12T19:26:32.122Z,7.88
2022-09-12T19:28:59.438Z,9.75
2022-09-12T19:31:26.736Z,10.13
2022-09-12T19:33:53.697Z,10.32
2022-09-12T19:36:43.872Z,10.20
2022-09-12T19:39:09.966Z,12.68
2022-09-12T19:41:37.050Z,11.70
2022-09-12T19:44:05.617Z,11.10
2022-09-12T19:46:32.652Z,12.98
2022-09-12T19:48:59.768Z,12.48
2022-09-12T19:51:26.639Z,9.25
2022-09-12T19:53:53.813Z,9.80
2022-09-12T19:56:21.299Z,11.07
2022-09-12T19:58:55.725Z,8.75
2022-09-12T20:01:28.358Z,8.93
2022-09-12T20:03:57.660Z,10.60
2022-09-12T20:06:26.122Z,9.25
2022-09-12T20:08:53.206Z,11.52
2022-09-12T20:11:23.413Z,10.15
2022-09-12T20:13:50.629Z,9.38
2022-09-12T20:16:25.646Z,10.25
2022-09-12T20:18:56.867Z,10.70
2022-09-12T20:21:31.668Z,10.40
2022-09-12T20:24:09.720Z,11.63
2022-09-12T20:26:36.718Z,11.18
2022-09-12T20:29:05.419Z,9.43
2022-09-12T20:31:33.444Z,10.30
2022-09-12T20:34:00.437Z,10.60
2022-09-12T20:36:27.908Z,10.27
2022-09-12T20:38:58.430Z,12.73
2022-09-12T20:41:28.182Z,14.07
2022-09-12T20:43:56.786Z,12.32
2022-09-12T20:46:26.235Z,11.27
2022-09-12T20:48:53.462Z,11.35
2022-09-12T20:51:22.354Z,13.52
2022-09-12T20:53:54.400Z,11.82
2022-09-12T20:56:23.154Z,16.75
2022-09-12T20:58:51.039Z,13.90
2022-09-12T21:01:19.577Z,14.20
2022-09-12T21:03:48.426Z,13.77
2022-09-12T21:06:19.580Z,15.38
2022-09-12T21:08:48.991Z,13.60
2022-09-12T21:11:18.367Z,12.80
2022-09-12T21:13:46.070Z,13.30
2022-09-12T21:16:16.485Z,12.82
2022-09-12T21:18:43.753Z,15.82
2022-09-12T21:21:16.069Z,13.25
2022-09-12T21:23:42.955Z,14.45
2022-09-12T21:26:09.973Z,15.35
2022-09-12T21:28:36.818Z,14.48
2022-09-12T21:31:04.050Z,13.02
2022-09-12T21:33:30.947Z,13.65
2022-09-12T21:36:03.937Z,13.98
2022-09-12T21:38:31.615Z,13.48
2022-09-12T21:41:07.002Z,14.35
2022-09-12T21:43:34.208Z,13.65
2022-09-12T21:46:02.448Z,12.00
2022-09-12T21:48:29.968Z,14.32
2022-09-12T21:50:57.199Z,14.07
2022-09-12T21:53:24.751Z,18.80
2022-09-12T21:55:51.895Z,14.93
2022-09-12T21:58:19.014Z,17.58
2022-09-12T22:00:45.944Z,14.82
2022-09-12T22:03:13.018Z,14.45
2022-09-12T22:05:40.271Z,16.25
2022-09-12T22:08:11.501Z,13.73
2022-09-12T22:10:38.670Z,17.27
2022-09-12T22:13:05.731Z,17.25
2022-09-12T22:15:41.032Z,18.67
2022-09-12T22:18:08.222Z,14.45
2022-09-12T22:20:35.028Z,13.95
2022-09-12T22:23:24.648Z,15.77
2022-09-12T22:25:55.742Z,13.00
2022-09-12T22:28:23.168Z,15.55
2022-09-12T22:30:49.989Z,16.13
2022-09-12T22:33:17.062Z,15.02
2022-09-12T22:35:44.281Z,17.05
2022-09-12T22:38:11.089Z,15.52
2022-09-12T22:40:38.334Z,14.23
2022-09-12T22:43:05.159Z,15.07
2022-09-12T22:45:32.348Z,14.10
2022-09-12T22:48:00.820Z,15.15
2022-09-12T22:50:28.603Z,16.35
2022-09-12T22:52:55.781Z,15.90
2022-09-12T22:55:22.618Z,18.52
2022-09-12T22:57:49.438Z,13.90
2022-09-12T23:00:18.057Z,14.00
2022-09-12T23:02:45.100Z,14.48
2022-09-12T23:05:12.345Z,16.70
2022-09-12T23:07:39.233Z,14.38
2022-09-12T23:10:07.035Z,12.75
2022-09-12T23:12:33.897Z,15.90
2022-09-12T23:15:00.687Z,15.52
2022-09-12T23:17:27.498Z,13.57
2022-09-12T23:19:54.324Z,18.30
2022-09-12T23:22:21.248Z,15.65
2022-09-12T23:24:48.057Z,12.38
2022-09-12T23:27:15.428Z,13.48
2022-09-12T23:29:42.235Z,13.27
2022-09-12T23:32:08.978Z,14.55
2022-09-12T23:34:36.507Z,14.52
2022-09-12T23:37:03.394Z,13.98
2022-09-12T23:39:31.800Z,13.30
2022-09-12T23:41:58.655Z,15.75
2022-09-12T23:44:25.437Z,14.88
2022-09-12T23:46:52.200Z,16.85
2022-09-12T23:49:19.594Z,13.40
2022-09-12T23:51:46.646Z,13.32
2022-09-12T23:54:13.667Z,14.50
2022-09-12T23:56:40.466Z,14.20
2022-09-12T23:59:07.681Z,15.88
